sensor_id;sensor_type;location;lat;lon;timestamp;P1;durP1;ratioP1;P2;durP2;ratioP2
52041;SDS011;38052;45.944;13.624;2023-03-01T00:02:04;12.32;;;7.65;;
52041;SDS011;38052;45.944;13.624;2023-03-01T00:04:31;12.18;;;7.45;;
52041;SDS011;38052;45.944;13.624;2023-03-01T00:06:57;13.18;;;8.60;;
52041;SDS011;38052;45.944;13.624;2023-03-01T00:09:24;11.40;;;7.57;;
52041;SDS011;38052;45.944;13.624;2023-03-01T00:11:50;15.10;;;7.85;;
52041;SDS011;38052;45.944;13.624;2023-03-01T00:14:17;11.55;;;7.15;;
52041;SDS011;38052;45.944;13.624;2023-03-01T00:16:43;12.52;;;7.22;;
52041;SDS011;38052;45.944;13.624;2023-03-01T00:19:14;15.02;;;7.82;;
52041;SDS011;38052;45.944;13.624;2023-03-01T00:21:41;13.32;;;8.00;;
52041;SDS011;38052;45.944;13.624;2023-03-01T00:24:08;12.35;;;8.80;;
52041;SDS011;38052;45.944;13.624;2023-03-01T00:26:34;15.52;;;9.73;;
52041;SDS011;38052;45.944;13.624;2023-03-01T00:29:01;16.83;;;9.73;;
52041;SDS011;38052;45.944;13.624;2023-03-01T00:31:28;12.85;;;8.75;;
52041;SDS011;38052;45.944;13.624;2023-03-01T00:33:55;14.95;;;7.47;;
52041;SDS011;38052;45.944;13.624;2023-03-01T00:36:22;11.32;;;7.53;;
52041;SDS011;38052;45.944;13.624;2023-03-01T00:38:48;12.90;;;8.82;;
52041;SDS011;38052;45.944;13.624;2023-03-01T00:41:15;10.73;;;7.20;;
52041;SDS011;38052;45.944;13.624;2023-03-01T00:43:42;15.95;;;8.02;;
52041;SDS011;38052;45.944;13.624;2023-03-01T00:46:11;13.35;;;8.25;;
52041;SDS011;38052;45.944;13.624;2023-03-01T00:48:37;11.45;;;7.50;;
52041;SDS011;38052;45.944;13.624;2023-03-01T00:51:07;10.63;;;7.05;;
52041;SDS011;38052;45.944;13.624;2023-03-01T00:53:34;11.40;;;7.90;;
52041;SDS011;38052;45.944;13.624;2023-03-01T00:56:01;11.52;;;8.20;;
52041;SDS011;38052;45.944;13.624;2023-03-01T00:58:27;15.10;;;8.45;;
52041;SDS011;38052;45.944;13.624;2023-03-01T01:00:54;11.60;;;7.57;;
52041;SDS011;38052;45.944;13.624;2023-03-01T01:03:21;14.30;;;8.77;;
52041;SDS011;38052;45.944;13.624;2023-03-01T01:05:50;14.63;;;7.30;;
52041;SDS011;38052;45.944;13.624;2023-03-01T01:08:17;9.40;;;6.38;;
52041;SDS011;38052;45.944;13.624;2023-03-01T01:10:44;12.77;;;8.85;;
52041;SDS011;38052;45.944;13.624;2023-03-01T01:13:10;15.85;;;9.10;;
52041;SDS011;38052;45.944;13.624;2023-03-01T01:15:36;12.02;;;8.30;;
52041;SDS011;38052;45.944;13.624;2023-03-01T01:18:03;11.68;;;8.00;;
52041;SDS011;38052;45.944;13.624;2023-03-01T01:20:29;12.57;;;8.35;;
52041;SDS011;38052;45.944;13.624;2023-03-01T01:22:56;12.65;;;6.90;;
52041;SDS011;38052;45.944;13.624;2023-03-01T01:25:22;12.27;;;7.80;;
52041;SDS011;38052;45.944;13.624;2023-03-01T01:27:50;15.77;;;8.15;;
52041;SDS011;38052;45.944;13.624;2023-03-01T01:30:16;12.95;;;8.43;;
52041;SDS011;38052;45.944;13.624;2023-03-01T01:32:43;13.68;;;8.30;;
52041;SDS011;38052;45.944;13.624;2023-03-01T01:35:09;10.52;;;7.40;;
52041;SDS011;38052;45.944;13.624;2023-03-01T01:37:36;11.30;;;6.60;;
52041;SDS011;38052;45.944;13.624;2023-03-01T01:40:02;14.18;;;8.48;;
52041;SDS011;38052;45.944;13.624;2023-03-01T01:42:29;12.55;;;8.45;;
52041;SDS011;38052;45.944;13.624;2023-03-01T01:47:40;15.48;;;8.68;;
52041;SDS011;38052;45.944;13.624;2023-03-01T01:50:08;11.93;;;7.68;;
52041;SDS011;38052;45.944;13.624;2023-03-01T01:52:40;13.50;;;8.38;;
52041;SDS011;38052;45.944;13.624;2023-03-01T01:55:07;15.88;;;9.85;;
52041;SDS011;38052;45.944;13.624;2023-03-01T02:00:05;13.35;;;7.28;;
52041;SDS011;38052;45.944;13.624;2023-03-01T02:02:32;12.75;;;7.72;;
52041;SDS011;38052;45.944;13.624;2023-03-01T02:05:20;15.32;;;8.95;;
52041;SDS011;38052;45.944;13.624;2023-03-01T02:07:48;13.48;;;8.05;;
52041;SDS011;38052;45.944;13.624;2023-03-01T02:10:15;12.13;;;7.95;;
52041;SDS011;38052;45.944;13.624;2023-03-01T02:12:41;11.73;;;8.13;;
52041;SDS011;38052;45.944;13.624;2023-03-01T02:15:08;14.13;;;8.90;;
52041;SDS011;38052;45.944;13.624;2023-03-01T02:17:35;11.65;;;8.15;;
52041;SDS011;38052;45.944;13.624;2023-03-01T02:22:47;13.85;;;8.70;;
52041;SDS011;38052;45.944;13.624;2023-03-01T02:30:41;12.15;;;8.50;;
52041;SDS011;38052;45.944;13.624;2023-03-01T02:33:28;13.00;;;7.95;;
52041;SDS011;38052;45.944;13.624;2023-03-01T02:35:57;11.75;;;8.52;;
52041;SDS011;38052;45.944;13.624;2023-03-01T02:38:25;15.57;;;8.95;;
52041;SDS011;38052;45.944;13.624;2023-03-01T02:40:51;8.95;;;6.15;;
52041;SDS011;38052;45.944;13.624;2023-03-01T02:43:18;13.18;;;7.50;;
52041;SDS011;38052;45.944;13.624;2023-03-01T02:45:50;11.55;;;8.23;;
52041;SDS011;38052;45.944;13.624;2023-03-01T02:48:17;16.23;;;8.75;;
52041;SDS011;38052;45.944;13.624;2023-03-01T02:53:32;14.65;;;9.38;;
52041;SDS011;38052;45.944;13.624;2023-03-01T02:56:01;11.95;;;8.25;;
52041;SDS011;38052;45.944;13.624;2023-03-01T02:58:27;13.98;;;8.80;;
52041;SDS011;38052;45.944;13.624;2023-03-01T03:00:54;13.57;;;8.27;;
52041;SDS011;38052;45.944;13.624;2023-03-01T03:03:20;15.60;;;9.63;;
52041;SDS011;38052;45.944;13.624;2023-03-01T03:05:47;12.38;;;8.27;;
52041;SDS011;38052;45.944;13.624;2023-03-01T03:08:14;10.68;;;7.07;;
52041;SDS011;38052;45.944;13.624;2023-03-01T03:10:48;15.32;;;8.45;;
52041;SDS011;38052;45.944;13.624;2023-03-01T03:13:15;13.75;;;8.10;;
52041;SDS011;38052;45.944;13.624;2023-03-01T03:15:42;12.20;;;9.07;;
52041;SDS011;38052;45.944;13.624;2023-03-01T03:18:10;14.63;;;8.40;;
52041;SDS011;38052;45.944;13.624;2023-03-01T03:20:37;12.65;;;8.40;;
52041;SDS011;38052;45.944;13.624;2023-03-01T03:23:05;14.20;;;8.25;;
52041;SDS011;38052;45.944;13.624;2023-03-01T03:25:32;12.18;;;8.82;;
52041;SDS011;38052;45.944;13.624;2023-03-01T03:28:03;17.47;;;8.77;;
52041;SDS011;38052;45.944;13.624;2023-03-01T03:30:34;15.02;;;8.25;;
52041;SDS011;38052;45.944;13.624;2023-03-01T03:33:01;15.38;;;9.32;;
52041;SDS011;38052;45.944;13.624;2023-03-01T03:35:49;12.77;;;8.52;;
52041;SDS011;38052;45.944;13.624;2023-03-01T03:38:14;12.70;;;7.82;;
52041;SDS011;38052;45.944;13.624;2023-03-01T03:40:42;15.50;;;8.73;;
52041;SDS011;38052;45.944;13.624;2023-03-01T03:43:10;16.80;;;9.73;;
52041;SDS011;38052;45.944;13.624;2023-03-01T03:45:37;12.60;;;8.80;;
52041;SDS011;38052;45.944;13.624;2023-03-01T03:48:03;13.20;;;8.25;;
52041;SDS011;38052;45.944;13.624;2023-03-01T03:50:30;15.93;;;9.30;;
52041;SDS011;38052;45.944;13.624;2023-03-01T03:52:57;12.98;;;8.27;;
52041;SDS011;38052;45.944;13.624;2023-03-01T03:55:25;14.52;;;8.32;;
52041;SDS011;38052;45.944;13.624;2023-03-01T03:57:56;13.18;;;8.73;;
52041;SDS011;38052;45.944;13.624;2023-03-01T04:00:22;17.70;;;9.68;;
52041;SDS011;38052;45.944;13.624;2023-03-01T04:02:49;13.60;;;8.13;;
52041;SDS011;38052;45.944;13.624;2023-03-01T04:05:17;13.68;;;8.70;;
52041;SDS011;38052;45.944;13.624;2023-03-01T04:07:44;12.32;;;7.55;;
52041;SDS011;38052;45.944;13.624;2023-03-01T04:10:12;14.13;;;8.27;;
52041;SDS011;38052;45.944;13.624;2023-03-01T04:12:39;15.18;;;8.02;;
52041;SDS011;38052;45.944;13.624;2023-03-01T04:15:06;10.98;;;7.75;;
52041;SDS011;38052;45.944;13.624;2023-03-01T04:17:42;13.93;;;8.07;;
52041;SDS011;38052;45.944;13.624;2023-03-01T04:20:09;14.25;;;7.82;;
52041;SDS011;38052;45.944;13.624;2023-03-01T04:22:36;12.23;;;7.60;;
52041;SDS011;38052;45.944;13.624;2023-03-01T04:25:04;16.25;;;8.65;;
52041;SDS011;38052;45.944;13.624;2023-03-01T04:27:34;15.45;;;8.02;;
52041;SDS011;38052;45.944;13.624;2023-03-01T04:30:00;18.75;;;8.07;;
52041;SDS011;38052;45.944;13.624;2023-03-01T04:32:26;18.42;;;11.10;;
52041;SDS011;38052;45.944;13.624;2023-03-01T04:34:53;13.20;;;8.93;;
52041;SDS011;38052;45.944;13.624;2023-03-01T04:37:19;15.25;;;8.27;;
52041;SDS011;38052;45.944;13.624;2023-03-01T04:39:46;16.17;;;8.32;;
52041;SDS011;38052;45.944;13.624;2023-03-01T04:42:13;14.57;;;8.82;;
52041;SDS011;38052;45.944;13.624;2023-03-01T04:44:39;15.15;;;8.48;;
52041;SDS011;38052;45.944;13.624;2023-03-01T04:47:06;15.82;;;9.48;;
52041;SDS011;38052;45.944;13.624;2023-03-01T04:49:32;11.63;;;8.02;;
52041;SDS011;38052;45.944;13.624;2023-03-01T04:51:58;14.90;;;7.57;;
52041;SDS011;38052;45.944;13.624;2023-03-01T04:54:30;15.60;;;8.65;;
52041;SDS011;38052;45.944;13.624;2023-03-01T04:56:56;11.85;;;7.28;;
52041;SDS011;38052;45.944;13.624;2023-03-01T04:59:23;12.45;;;8.18;;
52041;SDS011;38052;45.944;13.624;2023-03-01T05:01:50;22.92;;;9.32;;
52041;SDS011;38052;45.944;13.624;2023-03-01T05:04:17;12.60;;;8.05;;
52041;SDS011;38052;45.944;13.624;2023-03-01T05:06:43;12.50;;;7.65;;
52041;SDS011;38052;45.944;13.624;2023-03-01T05:09:10;16.17;;;8.77;;
52041;SDS011;38052;45.944;13.624;2023-03-01T05:11:37;15.65;;;9.25;;
52041;SDS011;38052;45.944;13.624;2023-03-01T05:14:04;10.95;;;8.18;;
52041;SDS011;38052;45.944;13.624;2023-03-01T05:16:31;12.55;;;8.13;;
52041;SDS011;38052;45.944;13.624;2023-03-01T05:18:57;17.00;;;8.52;;
52041;SDS011;38052;45.944;13.624;2023-03-01T05:21:24;11.05;;;7.82;;
52041;SDS011;38052;45.944;13.624;2023-03-01T05:23:51;15.88;;;8.57;;
52041;SDS011;38052;45.944;13.624;2023-03-01T05:26:19;13.80;;;8.50;;
52041;SDS011;38052;45.944;13.624;2023-03-01T05:28:46;16.10;;;8.27;;
52041;SDS011;38052;45.944;13.624;2023-03-01T05:31:13;12.52;;;8.90;;
52041;SDS011;38052;45.944;13.624;2023-03-01T05:33:40;17.25;;;8.85;;
52041;SDS011;38052;45.944;13.624;2023-03-01T05:36:07;17.63;;;8.68;;
52041;SDS011;38052;45.944;13.624;2023-03-01T05:38:34;10.30;;;7.03;;
52041;SDS011;38052;45.944;13.624;2023-03-01T05:41:01;15.18;;;7.03;;
52041;SDS011;38052;45.944;13.624;2023-03-01T05:43:30;13.35;;;7.15;;
52041;SDS011;38052;45.944;13.624;2023-03-01T05:45:58;10.73;;;7.22;;
52041;SDS011;38052;45.944;13.624;2023-03-01T05:48:25;11.95;;;8.10;;
52041;SDS011;38052;45.944;13.624;2023-03-01T05:50:52;13.35;;;7.85;;
52041;SDS011;38052;45.944;13.624;2023-03-01T05:53:19;11.55;;;6.38;;
52041;SDS011;38052;45.944;13.624;2023-03-01T05:56:05;11.90;;;4.65;;
52041;SDS011;38052;45.944;13.624;2023-03-01T05:58:32;11.75;;;6.05;;
52041;SDS011;38052;45.944;13.624;2023-03-01T06:00:59;12.05;;;7.07;;
52041;SDS011;38052;45.944;13.624;2023-03-01T06:03:25;16.90;;;6.90;;
52041;SDS011;38052;45.944;13.624;2023-03-01T06:05:55;11.32;;;6.38;;
52041;SDS011;38052;45.944;13.624;2023-03-01T06:08:21;13.70;;;7.70;;
52041;SDS011;38052;45.944;13.624;2023-03-01T06:10:48;13.75;;;5.85;;
52041;SDS011;38052;45.944;13.624;2023-03-01T06:13:14;11.82;;;7.45;;
52041;SDS011;38052;45.944;13.624;2023-03-01T06:15:40;16.63;;;8.02;;
52041;SDS011;38052;45.944;13.624;2023-03-01T06:18:07;14.10;;;8.70;;
52041;SDS011;38052;45.944;13.624;2023-03-01T06:20:33;11.63;;;6.88;;
52041;SDS011;38052;45.944;13.624;2023-03-01T06:22:59;12.23;;;7.20;;
52041;SDS011;38052;45.944;13.624;2023-03-01T06:25:26;12.55;;;6.80;;
52041;SDS011;38052;45.944;13.624;2023-03-01T06:27:52;12.30;;;7.53;;
52041;SDS011;38052;45.944;13.624;2023-03-01T06:30:20;15.25;;;5.90;;
52041;SDS011;38052;45.944;13.624;2023-03-01T06:32:46;12.05;;;7.15;;
52041;SDS011;38052;45.944;13.624;2023-03-01T06:35:13;14.07;;;6.47;;
52041;SDS011;38052;45.944;13.624;2023-03-01T06:37:40;9.85;;;6.00;;
52041;SDS011;38052;45.944;13.624;2023-03-01T06:40:07;12.23;;;6.38;;
52041;SDS011;38052;45.944;13.624;2023-03-01T06:42:34;13.30;;;7.32;;
52041;SDS011;38052;45.944;13.624;2023-03-01T06:45:00;17.02;;;7.20;;
52041;SDS011;38052;45.944;13.624;2023-03-01T06:47:27;10.75;;;5.93;;
52041;SDS011;38052;45.944;13.624;2023-03-01T06:49:53;13.88;;;5.15;;
52041;SDS011;38052;45.944;13.624;2023-03-01T06:52:19;11.32;;;6.13;;
52041;SDS011;38052;45.944;13.624;2023-03-01T06:54:45;11.90;;;7.22;;
52041;SDS011;38052;45.944;13.624;2023-03-01T06:57:12;11.80;;;5.53;;
52041;SDS011;38052;45.944;13.624;2023-03-01T06:59:39;10.75;;;6.85;;
52041;SDS011;38052;45.944;13.624;2023-03-01T07:02:05;12.82;;;6.63;;
52041;SDS011;38052;45.944;13.624;2023-03-01T07:04:32;12.32;;;6.85;;
52041;SDS011;38052;45.944;13.624;2023-03-01T07:06:58;12.85;;;7.38;;
52041;SDS011;38052;45.944;13.624;2023-03-01T07:09:25;15.65;;;7.60;;
52041;SDS011;38052;45.944;13.624;2023-03-01T07:11:51;11.05;;;7.45;;
52041;SDS011;38052;45.944;13.624;2023-03-01T07:14:17;14.32;;;7.68;;
52041;SDS011;38052;45.944;13.624;2023-03-01T07:16:44;13.38;;;8.43;;
52041;SDS011;38052;45.944;13.624;2023-03-01T07:19:11;12.93;;;7.28;;
52041;SDS011;38052;45.944;13.624;2023-03-01T07:21:37;15.70;;;7.03;;
52041;SDS011;38052;45.944;13.624;2023-03-01T07:24:05;12.88;;;6.68;;
52041;SDS011;38052;45.944;13.624;2023-03-01T07:26:32;11.50;;;6.13;;
52041;SDS011;38052;45.944;13.624;2023-03-01T07:28:59;9.48;;;5.93;;
52041;SDS011;38052;45.944;13.624;2023-03-01T07:31:26;10.70;;;5.72;;
52041;SDS011;38052;45.944;13.624;2023-03-01T07:33:53;12.38;;;7.30;;
52041;SDS011;38052;45.944;13.624;2023-03-01T07:36:19;15.88;;;5.80;;
52041;SDS011;38052;45.944;13.624;2023-03-01T07:38:46;12.13;;;5.78;;
52041;SDS011;38052;45.944;13.624;2023-03-01T07:41:12;16.00;;;7.38;;
52041;SDS011;38052;45.944;13.624;2023-03-01T07:43:39;11.50;;;5.40;;
52041;SDS011;38052;45.944;13.624;2023-03-01T07:46:05;12.52;;;5.97;;
52041;SDS011;38052;45.944;13.624;2023-03-01T07:48:32;9.52;;;5.47;;
52041;SDS011;38052;45.944;13.624;2023-03-01T07:50:59;10.93;;;5.47;;
52041;SDS011;38052;45.944;13.624;2023-03-01T07:53:25;13.60;;;7.07;;
52041;SDS011;38052;45.944;13.624;2023-03-01T07:56:05;15.32;;;6.32;;
52041;SDS011;38052;45.944;13.624;2023-03-01T07:58:33;10.75;;;5.47;;
52041;SDS011;38052;45.944;13.624;2023-03-01T08:01:04;10.35;;;5.60;;
52041;SDS011;38052;45.944;13.624;2023-03-01T08:03:31;12.77;;;6.60;;
52041;SDS011;38052;45.944;13.624;2023-03-01T08:06:04;11.68;;;5.32;;
52041;SDS011;38052;45.944;13.624;2023-03-01T08:08:31;12.30;;;5.82;;
52041;SDS011;38052;45.944;13.624;2023-03-01T08:10:58;15.00;;;5.78;;
52041;SDS011;38052;45.944;13.624;2023-03-01T08:13:24;9.25;;;5.72;;
52041;SDS011;38052;45.944;13.624;2023-03-01T08:15:50;10.05;;;4.93;;
52041;SDS011;38052;45.944;13.624;2023-03-01T08:18:18;11.55;;;5.53;;
52041;SDS011;38052;45.944;13.624;2023-03-01T08:20:44;11.27;;;6.97;;
52041;SDS011;38052;45.944;13.624;2023-03-01T08:23:11;12.57;;;5.90;;
52041;SDS011;38052;45.944;13.624;2023-03-01T08:25:38;13.75;;;6.90;;
52041;SDS011;38052;45.944;13.624;2023-03-01T08:28:04;17.70;;;6.95;;
52041;SDS011;38052;45.944;13.624;2023-03-01T08:30:31;13.32;;;5.70;;
52041;SDS011;38052;45.944;13.624;2023-03-01T08:32:58;7.82;;;3.90;;
52041;SDS011;38052;45.944;13.624;2023-03-01T08:35:24;8.60;;;4.05;;
52041;SDS011;38052;45.944;13.624;2023-03-01T08:37:51;6.93;;;3.15;;
52041;SDS011;38052;45.944;13.624;2023-03-01T08:40:18;11.60;;;2.97;;
52041;SDS011;38052;45.944;13.624;2023-03-01T08:42:44;14.55;;;4.45;;
52041;SDS011;38052;45.944;13.624;2023-03-01T08:45:11;19.60;;;4.03;;
52041;SDS011;38052;45.944;13.624;2023-03-01T08:47:39;10.90;;;3.90;;
52041;SDS011;38052;45.944;13.624;2023-03-01T08:50:05;8.75;;;5.05;;
52041;SDS011;38052;45.944;13.624;2023-03-01T08:52:32;8.70;;;4.25;;
52041;SDS011;38052;45.944;13.624;2023-03-01T08:54:58;14.93;;;4.30;;
52041;SDS011;38052;45.944;13.624;2023-03-01T08:57:26;7.53;;;3.85;;
52041;SDS011;38052;45.944;13.624;2023-03-01T08:59:53;10.38;;;2.63;;
52041;SDS011;38052;45.944;13.624;2023-03-01T09:02:21;8.00;;;3.47;;
52041;SDS011;38052;45.944;13.624;2023-03-01T09:04:48;5.95;;;2.70;;
52041;SDS011;38052;45.944;13.624;2023-03-01T09:07:15;9.35;;;4.40;;
52041;SDS011;38052;45.944;13.624;2023-03-01T09:09:41;5.78;;;3.08;;
52041;SDS011;38052;45.944;13.624;2023-03-01T09:12:08;9.25;;;3.10;;
52041;SDS011;38052;45.944;13.624;2023-03-01T09:14:34;7.00;;;3.75;;
52041;SDS011;38052;45.944;13.624;2023-03-01T09:17:03;8.20;;;4.53;;
52041;SDS011;38052;45.944;13.624;2023-03-01T09:19:30;4.60;;;2.65;;
52041;SDS011;38052;45.944;13.624;2023-03-01T09:21:56;12.05;;;4.20;;
52041;SDS011;38052;45.944;13.624;2023-03-01T09:24:23;6.97;;;3.38;;
52041;SDS011;38052;45.944;13.624;2023-03-01T09:26:50;10.32;;;3.72;;
52041;SDS011;38052;45.944;13.624;2023-03-01T09:29:18;7.70;;;3.05;;
52041;SDS011;38052;45.944;13.624;2023-03-01T09:31:45;8.68;;;4.05;;
52041;SDS011;38052;45.944;13.624;2023-03-01T09:34:12;8.25;;;3.45;;
52041;SDS011;38052;45.944;13.624;2023-03-01T09:36:41;8.43;;;3.25;;
52041;SDS011;38052;45.944;13.624;2023-03-01T09:39:07;8.43;;;3.80;;
52041;SDS011;38052;45.944;13.624;2023-03-01T09:41:41;10.80;;;3.58;;
52041;SDS011;38052;45.944;13.624;2023-03-01T09:46:38;20.80;;;4.55;;
52041;SDS011;38052;45.944;13.624;2023-03-01T09:49:19;11.25;;;3.28;;
52041;SDS011;38052;45.944;13.624;2023-03-01T09:51:52;9.30;;;3.65;;
52041;SDS011;38052;45.944;13.624;2023-03-01T09:54:20;6.88;;;3.95;;
52041;SDS011;38052;45.944;13.624;2023-03-01T09:56:53;7.53;;;3.88;;
52041;SDS011;38052;45.944;13.624;2023-03-01T09:59:25;5.03;;;2.53;;
52041;SDS011;38052;45.944;13.624;2023-03-01T10:01:58;9.18;;;3.65;;
52041;SDS011;38052;45.944;13.624;2023-03-01T10:09:24;7.45;;;2.47;;
52041;SDS011;38052;45.944;13.624;2023-03-01T10:11:54;11.77;;;3.75;;
52041;SDS011;38052;45.944;13.624;2023-03-01T10:14:37;7.77;;;3.03;;
52041;SDS011;38052;45.944;13.624;2023-03-01T10:17:08;9.05;;;3.97;;
52041;SDS011;38052;45.944;13.624;2023-03-01T10:19:40;8.65;;;3.97;;
52041;SDS011;38052;45.944;13.624;2023-03-01T10:22:13;7.57;;;3.30;;
52041;SDS011;38052;45.944;13.624;2023-03-01T10:24:41;6.07;;;3.33;;
52041;SDS011;38052;45.944;13.624;2023-03-01T10:27:29;5.20;;;3.13;;
52041;SDS011;38052;45.944;13.624;2023-03-01T10:29:59;9.80;;;3.72;;
52041;SDS011;38052;45.944;13.624;2023-03-01T10:32:31;31.42;;;14.82;;
52041;SDS011;38052;45.944;13.624;2023-03-01T10:34:57;10.98;;;4.25;;
52041;SDS011;38052;45.944;13.624;2023-03-01T10:37:23;12.18;;;2.70;;
52041;SDS011;38052;45.944;13.624;2023-03-01T10:39:55;8.38;;;4.35;;
52041;SDS011;38052;45.944;13.624;2023-03-01T10:42:26;10.23;;;4.55;;
52041;SDS011;38052;45.944;13.624;2023-03-01T10:44:53;7.68;;;3.03;;
52041;SDS011;38052;45.944;13.624;2023-03-01T10:47:24;6.32;;;3.67;;
52041;SDS011;38052;45.944;13.624;2023-03-01T10:49:51;5.05;;;2.58;;
52041;SDS011;38052;45.944;13.624;2023-03-01T10:52:18;6.90;;;3.05;;
52041;SDS011;38052;45.944;13.624;2023-03-01T10:54:52;6.20;;;3.03;;
52041;SDS011;38052;45.944;13.624;2023-03-01T10:57:29;7.40;;;3.72;;
52041;SDS011;38052;45.944;13.624;2023-03-01T11:00:45;5.28;;;3.15;;
52041;SDS011;38052;45.944;13.624;2023-03-01T11:05:24;8.98;;;2.72;;
52041;SDS011;38052;45.944;13.624;2023-03-01T11:07:52;5.97;;;3.10;;
52041;SDS011;38052;45.944;13.624;2023-03-01T11:12:47;4.07;;;2.58;;
52041;SDS011;38052;45.944;13.624;2023-03-01T11:15:24;4.30;;;2.92;;
52041;SDS011;38052;45.944;13.624;2023-03-01T11:17:51;5.38;;;2.70;;
52041;SDS011;38052;45.944;13.624;2023-03-01T11:20:32;8.38;;;3.08;;
52041;SDS011;38052;45.944;13.624;2023-03-01T11:23:13;6.60;;;3.10;;
52041;SDS011;38052;45.944;13.624;2023-03-01T11:25:44;4.90;;;2.58;;
52041;SDS011;38052;45.944;13.624;2023-03-01T11:28:13;4.28;;;2.58;;
52041;SDS011;38052;45.944;13.624;2023-03-01T11:30:41;6.70;;;2.65;;
52041;SDS011;38052;45.944;13.624;2023-03-01T11:33:13;6.43;;;3.42;;
52041;SDS011;38052;45.944;13.624;2023-03-01T11:35:44;5.72;;;3.05;;
52041;SDS011;38052;45.944;13.624;2023-03-01T11:40:41;4.28;;;2.13;;
52041;SDS011;38052;45.944;13.624;2023-03-01T11:50:51;5.88;;;3.85;;
52041;SDS011;38052;45.944;13.624;2023-03-01T11:58:30;5.63;;;3.78;;
52041;SDS011;38052;45.944;13.624;2023-03-01T12:01:40;6.47;;;3.60;;
52041;SDS011;38052;45.944;13.624;2023-03-01T12:11:41;4.18;;;2.42;;
52041;SDS011;38052;45.944;13.624;2023-03-01T12:24:47;5.63;;;3.80;;
52041;SDS011;38052;45.944;13.624;2023-03-01T12:32:25;4.75;;;2.92;;
52041;SDS011;38052;45.944;13.624;2023-03-01T12:45:01;5.80;;;3.03;;
52041;SDS011;38052;45.944;13.624;2023-03-01T12:50:41;9.23;;;3.42;;
52041;SDS011;38052;45.944;13.624;2023-03-01T12:53:41;5.93;;;3.50;;
52041;SDS011;38052;45.944;13.624;2023-03-01T12:56:02;6.78;;;3.13;;
52041;SDS011;38052;45.944;13.624;2023-03-01T13:11:21;5.35;;;2.80;;
52041;SDS011;38052;45.944;13.624;2023-03-01T13:13:48;5.93;;;2.05;;
52041;SDS011;38052;45.944;13.624;2023-03-01T13:16:21;3.33;;;2.40;;
52041;SDS011;38052;45.944;13.624;2023-03-01T13:18:48;3.40;;;2.47;;
52041;SDS011;38052;45.944;13.624;2023-03-01T13:21:15;7.55;;;2.58;;
52041;SDS011;38052;45.944;13.624;2023-03-01T13:23:55;5.38;;;2.63;;
52041;SDS011;38052;45.944;13.624;2023-03-01T13:26:21;6.20;;;3.17;;
52041;SDS011;38052;45.944;13.624;2023-03-01T13:28:49;4.13;;;2.25;;
52041;SDS011;38052;45.944;13.624;2023-03-01T13:33:55;5.30;;;2.58;;
52041;SDS011;38052;45.944;13.624;2023-03-01T13:46:42;5.70;;;2.65;;
52041;SDS011;38052;45.944;13.624;2023-03-01T13:49:11;9.93;;;1.83;;
52041;SDS011;38052;45.944;13.624;2023-03-01T13:51:40;3.33;;;1.20;;
52041;SDS011;38052;45.944;13.624;2023-03-01T13:54:10;11.15;;;2.83;;
52041;SDS011;38052;45.944;13.624;2023-03-01T13:56:37;5.53;;;2.97;;
52041;SDS011;38052;45.944;13.624;2023-03-01T13:59:12;3.83;;;1.95;;
52041;SDS011;38052;45.944;13.624;2023-03-01T14:01:41;4.40;;;1.95;;
52041;SDS011;38052;45.944;13.624;2023-03-01T14:07:16;3.72;;;2.60;;
52041;SDS011;38052;45.944;13.624;2023-03-01T14:09:44;5.78;;;3.22;;
52041;SDS011;38052;45.944;13.624;2023-03-01T14:12:23;3.97;;;1.60;;
52041;SDS011;38052;45.944;13.624;2023-03-01T14:19:46;8.02;;;1.88;;
52041;SDS011;38052;45.944;13.624;2023-03-01T14:24:47;3.55;;;2.50;;
52041;SDS011;38052;45.944;13.624;2023-03-01T14:29:40;3.30;;;1.80;;
52041;SDS011;38052;45.944;13.624;2023-03-01T14:32:10;3.38;;;2.70;;
52041;SDS011;38052;45.944;13.624;2023-03-01T14:34:38;6.03;;;1.90;;
52041;SDS011;38052;45.944;13.624;2023-03-01T14:37:50;2.42;;;1.35;;
52041;SDS011;38052;45.944;13.624;2023-03-01T14:39:59;4.18;;;2.20;;
52041;SDS011;38052;45.944;13.624;2023-03-01T14:42:26;6.35;;;2.35;;
52041;SDS011;38052;45.944;13.624;2023-03-01T14:44:55;3.03;;;1.88;;
52041;SDS011;38052;45.944;13.624;2023-03-01T14:47:26;4.72;;;2.38;;
52041;SDS011;38052;45.944;13.624;2023-03-01T14:49:58;5.95;;;2.60;;
52041;SDS011;38052;45.944;13.624;2023-03-01T14:52:27;4.45;;;2.08;;
52041;SDS011;38052;45.944;13.624;2023-03-01T14:54:54;4.25;;;2.42;;
52041;SDS011;38052;45.944;13.624;2023-03-01T14:57:23;3.85;;;2.72;;
52041;SDS011;38052;45.944;13.624;2023-03-01T14:59:50;4.63;;;2.78;;
52041;SDS011;38052;45.944;13.624;2023-03-01T15:02:18;6.13;;;2.65;;
52041;SDS011;38052;45.944;13.624;2023-03-01T15:04:46;3.47;;;2.25;;
52041;SDS011;38052;45.944;13.624;2023-03-01T15:07:13;3.10;;;2.40;;
52041;SDS011;38052;45.944;13.624;2023-03-01T15:09:40;3.70;;;2.67;;
52041;SDS011;38052;45.944;13.624;2023-03-01T15:12:32;5.43;;;2.67;;
52041;SDS011;38052;45.944;13.624;2023-03-01T15:14:59;5.13;;;2.83;;
52041;SDS011;38052;45.944;13.624;2023-03-01T15:17:37;3.28;;;2.00;;
52041;SDS011;38052;45.944;13.624;2023-03-01T15:20:05;4.90;;;2.10;;
52041;SDS011;38052;45.944;13.624;2023-03-01T15:22:32;5.68;;;2.35;;
52041;SDS011;38052;45.944;13.624;2023-03-01T15:24:58;3.72;;;1.75;;
52041;SDS011;38052;45.944;13.624;2023-03-01T15:27:25;2.85;;;2.45;;
52041;SDS011;38052;45.944;13.624;2023-03-01T15:29:54;4.20;;;2.22;;
52041;SDS011;38052;45.944;13.624;2023-03-01T15:32:28;3.75;;;2.10;;
52041;SDS011;38052;45.944;13.624;2023-03-01T15:34:55;4.03;;;2.05;;
52041;SDS011;38052;45.944;13.624;2023-03-01T15:42:50;5.97;;;2.13;;
52041;SDS011;38052;45.944;13.624;2023-03-01T15:47:48;6.00;;;1.80;;
52041;SDS011;38052;45.944;13.624;2023-03-01T15:50:16;4.78;;;2.03;;
52041;SDS011;38052;45.944;13.624;2023-03-01T15:52:43;2.80;;;1.80;;
52041;SDS011;38052;45.944;13.624;2023-03-01T15:57:42;3.42;;;2.03;;
52041;SDS011;38052;45.944;13.624;2023-03-01T16:00:09;2.72;;;2.15;;
52041;SDS011;38052;45.944;13.624;2023-03-01T16:02:37;5.47;;;2.17;;
52041;SDS011;38052;45.944;13.624;2023-03-01T16:05:04;6.65;;;2.42;;
52041;SDS011;38052;45.944;13.624;2023-03-01T16:07:30;3.35;;;1.60;;
52041;SDS011;38052;45.944;13.624;2023-03-01T16:09:57;3.17;;;1.77;;
52041;SDS011;38052;45.944;13.624;2023-03-01T16:12:23;4.88;;;2.63;;
52041;SDS011;38052;45.944;13.624;2023-03-01T16:14:50;3.22;;;2.33;;
52041;SDS011;38052;45.944;13.624;2023-03-01T16:17:18;6.80;;;2.88;;
52041;SDS011;38052;45.944;13.624;2023-03-01T16:19:44;2.95;;;1.63;;
52041;SDS011;38052;45.944;13.624;2023-03-01T16:22:11;5.13;;;1.80;;
52041;SDS011;38052;45.944;13.624;2023-03-01T16:24:38;3.97;;;2.00;;
52041;SDS011;38052;45.944;13.624;2023-03-01T16:27:05;3.20;;;1.10;;
52041;SDS011;38052;45.944;13.624;2023-03-01T16:29:32;2.28;;;1.60;;
52041;SDS011;38052;45.944;13.624;2023-03-01T16:32:01;2.33;;;1.52;;
52041;SDS011;38052;45.944;13.624;2023-03-01T16:34:28;2.67;;;1.48;;
52041;SDS011;38052;45.944;13.624;2023-03-01T16:36:54;5.05;;;1.40;;
52041;SDS011;38052;45.944;13.624;2023-03-01T16:39:21;5.45;;;1.60;;
52041;SDS011;38052;45.944;13.624;2023-03-01T16:41:47;7.00;;;1.95;;
52041;SDS011;38052;45.944;13.624;2023-03-01T16:44:14;2.38;;;1.55;;